Time;durP1;ratioP1;P1;durP2;ratioP2;P2;SDS_P1;SDS_P2;PMS_P1;PMS_P2;Temp;Humidity;BMP_temperature;BMP_pressure;BME280_temperature;BME280_humidity;BME280_pressure;Samples;Min_cycle;Max_cycle;Signal;HPM_P1;HPM_P2
2023/12/05 00:04:42;;;;;;;5.25;4.75;;;;;;;20.14;42.20;100516.47;41329999;28;20043;-74
2023/12/05 00:24:42;;;;;;;6.20;5.25;;;;;;;20.12;42.25;100510.47;41302363;28;20079;-75
2023/12/05 00:44:43;;;;;;;5.97;5.13;;;;;;;20.13;42.26;100514.78;41360922;28;20504;-74
2023/12/05 01:04:43;;;;;;;7.07;5.25;;;;;;;20.09;42.46;100508.06;41411615;28;20042;-73
2023/12/05 01:24:44;;;;;;;6.18;5.10;;;;;;;20.21;42.15;100502.88;41362477;28;20057;-74
2023/12/05 01:44:44;;;;;;;6.57;5.25;;;;;;;20.19;42.20;100475.84;41345219;28;20038;-74
2023/12/05 02:04:45;;;;;;;6.05;5.40;;;;;;;20.13;42.29;100425.38;41367391;28;20088;-75
2023/12/05 02:25:11;;;;;;;6.28;5.68;;;;;;;20.13;42.07;100385.13;41352848;28;20650;-74
2023/12/05 02:45:18;;;;;;;5.80;5.20;;;;;;;20.12;42.09;100349.28;41452674;28;20161;-74
2023/12/05 03:05:18;;;;;;;6.60;5.53;;;;;;;20.07;42.08;100369.81;41330370;28;20039;-74
2023/12/05 03:25:20;;;;;;;5.93;5.32;;;;;;;20.19;41.69;100347.00;41311873;28;20042;-74
2023/12/05 03:45:20;;;;;;;6.00;5.40;;;;;;;20.10;42.09;100331.00;41344071;28;20038;-74
2023/12/05 04:05:20;;;;;;;7.32;5.82;;;;;;;20.09;41.84;100312.69;41406467;28;20046;-73
2023/12/05 04:25:21;;;;;;;6.43;5.68;;;;;;;20.14;41.80;100305.28;41307833;28;20119;-75
2023/12/05 04:45:21;;;;;;;7.13;5.97;;;;;;;20.11;41.78;100297.66;41329507;28;20632;-74
2023/12/05 05:05:21;;;;;;;10.68;6.55;;;;;;;20.13;41.72;100308.91;41325971;28;20052;-76
2023/12/05 05:25:22;;;;;;;6.97;6.13;;;;;;;20.57;41.35;100296.81;41299099;28;20467;-76
2023/12/05 05:45:22;;;;;;;7.28;5.50;;;;;;;20.92;41.32;100293.28;41331240;28;20134;-75
2023/12/05 06:05:24;;;;;;;8.85;5.80;;;;;;;21.02;41.27;100300.44;41370807;28;20464;-76
2023/12/05 06:25:25;;;;;;;8.00;6.50;;;;;;;20.82;41.18;100302.84;41303537;28;20054;-74
2023/12/05 06:45:25;;;;;;;8.68;5.75;;;;;;;20.94;41.17;100312.41;41400847;28;20042;-74
2023/12/05 07:05:25;;;;;;;11.82;6.57;;;;;;;21.09;41.21;100299.88;41349952;28;20398;-76
2023/12/05 07:25:26;;;;;;;8.18;5.82;;;;;;;21.13;41.15;100323.31;41347581;28;20088;-76
2023/12/05 07:45:27;;;;;;;7.90;6.00;;;;;;;21.09;40.93;100339.38;41356626;28;20042;-76
2023/12/05 08:05:27;;;;;;;21.58;15.00;;;;;;;10.14;37.41;100352.75;41432227;28;20065;-74
2023/12/05 08:25:27;;;;;;;16.60;9.85;;;;;;;19.88;33.33;100320.38;41447493;28;20062;-77
2023/12/05 08:45:28;;;;;;;27.15;13.02;;;;;;;20.31;36.27;100330.31;41463172;28;20045;-78
2023/12/05 09:05:29;;;;;;;19.90;11.95;;;;;;;20.45;36.84;100316.16;41492211;28;20050;-78
2023/12/05 09:25:29;;;;;;;21.77;12.18;;;;;;;20.40;37.31;100321.75;41518936;28;20053;-78
2023/12/05 09:45:36;;;;;;;19.90;12.13;;;;;;;20.55;37.29;100292.63;41386900;28;20101;-77
2023/12/05 10:05:42;;;;;;;16.65;11.55;;;;;;;20.57;37.54;100273.13;41420039;28;20367;-77
2023/12/05 10:25:43;;;;;;;17.27;12.05;;;;;;;20.57;37.84;100246.00;41374095;28;20046;-78
2023/12/05 10:45:44;;;;;;;18.33;13.13;;;;;;;20.58;37.84;100214.31;41370622;28;20040;-77
2023/12/05 11:05:44;;;;;;;16.80;12.43;;;;;;;20.66;37.40;100204.97;41376917;28;20042;-77
2023/12/05 11:26:16;;;;;;;17.63;12.35;;;;;;;20.58;37.79;100201.16;41322074;28;20048;-76
2023/12/05 11:46:17;;;;;;;14.93;10.93;;;;;;;20.60;37.90;100195.75;41338301;28;20111;-78
2023/12/05 12:06:19;;;;;;;13.98;10.40;;;;;;;20.48;37.97;100201.03;41340328;28;20046;-76
2023/12/05 12:26:20;;;;;;;13.07;10.18;;;;;;;20.70;37.76;100183.59;41403730;28;20130;-76
2023/12/05 12:46:21;;;;;;;13.20;10.13;;;;;;;20.59;38.08;100176.53;41420836;28;20042;-79
2023/12/05 13:06:24;;;;;;;14.73;10.00;;;;;;;20.89;38.19;100172.44;41384606;28;20058;-80
2023/12/05 13:26:25;;;;;;;14.52;8.88;;;;;;;21.01;38.97;100181.16;41322179;28;20513;-75
2023/12/05 13:46:25;;;;;;;16.27;9.13;;;;;;;21.19;39.44;100160.44;41325452;28;20125;-75
2023/12/05 14:06:25;;;;;;;12.93;9.13;;;;;;;21.02;39.76;100160.94;41397809;28;20042;-79
2023/12/05 14:26:26;;;;;;;11.10;8.80;;;;;;;20.76;38.42;100184.91;41326378;28;20042;-77
2023/12/05 14:46:26;;;;;;;11.63;8.48;;;;;;;20.97;38.82;100185.03;41346932;28;20497;-78
2023/12/05 15:06:28;;;;;;;10.75;8.50;;;;;;;20.87;39.92;100189.31;41281025;28;20070;-80
2023/12/05 15:26:28;;;;;;;12.00;8.68;;;;;;;20.75;39.78;100191.97;41299354;28;20061;-80
2023/12/05 15:46:29;;;;;;;10.75;8.25;;;;;;;20.62;40.47;100193.88;41259638;28;20042;-78
2023/12/05 16:06:29;;;;;;;12.38;8.50;;;;;;;20.47;40.33;100194.09;41296620;28;20048;-74
2023/12/05 16:26:37;;;;;;;10.85;8.25;;;;;;;20.44;40.50;100199.56;41289629;28;20121;-76
2023/12/05 16:46:37;;;;;;;11.57;8.63;;;;;;;20.32;41.00;100195.28;41324392;28;20188;-75
2023/12/05 17:06:37;;;;;;;12.25;8.43;;;;;;;20.33;40.91;100204.00;41333432;28;20569;-72
2023/12/05 17:26:38;;;;;;;10.70;8.10;;;;;;;20.30;41.33;100195.41;41309360;28;20053;-74
2023/12/05 17:46:38;;;;;;;12.85;8.43;;;;;;;20.19;42.07;100197.16;41295781;28;20038;-74
2023/12/05 18:06:42;;;;;;;11.82;8.27;;;;;;;20.24;41.85;100187.97;41342936;28;20053;-74
2023/12/05 18:26:57;;;;;;;12.05;8.18;;;;;;;20.22;42.35;100189.88;41312031;28;20038;-78
2023/12/05 18:46:58;;;;;;;13.05;8.93;;;;;;;20.21;42.18;100180.31;41412376;28;20132;-79
2023/12/05 19:06:59;;;;;;;23.38;10.13;;;;;;;20.61;45.09;100190.38;41360997;28;20341;-77
2023/12/05 19:27:00;;;;;;;32.17;14.20;;;;;;;20.59;48.49;100175.69;41407444;28;20045;-75
2023/12/05 19:47:01;;;;;;;37.70;16.67;;;;;;;20.52;48.00;100185.00;41345937;28;20042;-80
2023/12/05 20:07:02;;;;;;;40.10;18.45;;;;;;;20.36;47.55;100183.56;41333227;28;20042;-79
2023/12/05 20:27:03;;;;;;;39.60;19.67;;;;;;;20.37;46.88;100184.41;41331554;28;20140;-74
2023/12/05 20:47:05;;;;;;;34.83;18.20;;;;;;;20.12;45.72;100184.50;41306925;28;20405;-77
2023/12/05 21:07:05;;;;;;;30.00;16.48;;;;;;;20.14;46.03;100201.00;41338557;28;20037;-76
2023/12/05 21:27:06;;;;;;;26.42;15.68;;;;;;;20.14;46.63;100203.63;41341102;28;20043;-74
2023/12/05 21:47:08;;;;;;;24.88;14.05;;;;;;;20.17;46.74;100228.00;41458464;28;20041;-74
2023/12/05 22:07:08;;;;;;;21.67;13.88;;;;;;;20.14;47.06;100221.16;41455568;28;20038;-73
2023/12/05 22:27:09;;;;;;;17.63;11.75;;;;;;;20.11;46.82;100213.53;41445326;28;20046;-73
2023/12/05 22:47:09;;;;;;;16.65;10.88;;;;;;;20.17;47.04;100205.16;41437246;28;20054;-73
2023/12/05 23:07:09;;;;;;;17.67;11.15;;;;;;;20.22;47.06;100195.13;41437784;28;20038;-73
2023/12/05 23:27:10;;;;;;;15.52;10.90;;;;;;;20.19;46.99;100192.75;41414310;28;20059;-76
2023/12/05 23:47:12;;;;;;;15.90;10.60;;;;;;;20.18;46.64;100177.06;41321227;28;20033;-74
